createdAt,value
2023-04-19T00:00:00.283Z,8.4
2023-04-19T00:15:00.303Z,8.4
2023-04-19T00:30:00.367Z,8.2
2023-04-19T00:45:00.281Z,8.1
2023-04-19T01:00:00.290Z,8.0
2023-04-19T01:15:00.337Z,7.8
2023-04-19T01:30:00.309Z,7.8
2023-04-19T01:45:00.384Z,7.6
2023-04-19T02:00:00.317Z,7.5
2023-04-19T02:15:00.325Z,7.4
2023-04-19T02:30:00.301Z,7.3
2023-04-19T02:45:00.367Z,7.2
2023-04-19T03:00:00.362Z,7.1
2023-04-19T03:15:00.291Z,6.9
2023-04-19T03:30:00.313Z,6.8
2023-04-19T03:45:00.366Z,6.5
2023-04-19T04:00:00.337Z,6.3
2023-04-19T04:15:00.270Z,6.1
2023-04-19T04:30:00.291Z,6.0
2023-04-19T04:45:00.384Z,5.8
2023-04-19T05:00:00.318Z,5.7
2023-04-19T05:15:00.334Z,5.8
2023-04-19T05:30:00.337Z,6.0
2023-04-19T05:45:00.423Z,6.6
2023-04-19T06:15:00.325Z,7.7
2023-04-19T06:30:00.291Z,8.2
2023-04-19T06:45:00.370Z,8.8
2023-04-19T07:00:00.309Z,9.8
2023-04-19T07:15:00.319Z,10.7
2023-04-19T07:30:00.338Z,11.9
2023-04-19T07:45:00.377Z,12.5
2023-04-19T08:00:00.331Z,12.6
2023-04-19T08:15:07.661Z,12.6
2023-04-19T08:30:00.301Z,12.7
2023-04-19T09:00:00.356Z,14.3
2023-04-19T09:15:02.137Z,14.4
2023-04-19T09:30:00.368Z,14.2
2023-04-19T10:00:00.489Z,13.7
2023-04-19T10:15:00.325Z,13.6
2023-04-19T10:30:00.344Z,13.7
2023-04-19T10:45:00.374Z,13.7
2023-04-19T11:00:00.318Z,13.4
2023-04-19T11:15:00.331Z,13.2
2023-04-19T11:30:00.321Z,13.1
2023-04-19T11:45:00.409Z,12.8
2023-04-19T12:00:00.303Z,12.4
2023-04-19T12:15:00.357Z,12.2
2023-04-19T12:30:00.323Z,12.1
2023-04-19T12:45:00.381Z,12.1
2023-04-19T13:00:00.308Z,12.2
2023-04-19T13:15:02.805Z,12.4
2023-04-19T13:30:00.302Z,12.6
2023-04-19T13:45:00.377Z,12.6
2023-04-19T14:00:00.321Z,12.6
2023-04-19T14:15:00.299Z,12.4
2023-04-19T14:30:00.315Z,11.9
2023-04-19T14:45:00.450Z,11.3
2023-04-19T15:00:00.491Z,10.7
2023-04-19T15:15:00.404Z,10.3
2023-04-19T15:30:00.402Z,10.0
2023-04-19T15:45:00.390Z,9.7
2023-04-19T16:00:00.487Z,9.5
2023-04-19T16:15:00.428Z,9.3
2023-04-19T16:30:00.430Z,9.2
2023-04-19T16:45:00.431Z,9.0
2023-04-19T17:00:00.437Z,8.9
2023-04-19T17:15:00.455Z,8.7
2023-04-19T17:30:00.420Z,8.6
2023-04-19T17:45:00.467Z,8.4
2023-04-19T18:00:00.433Z,8.3
2023-04-19T18:15:00.411Z,8.2
2023-04-19T18:30:00.456Z,8.2
2023-04-19T18:45:00.687Z,8.0
2023-04-19T19:00:00.396Z,7.9
2023-04-19T19:15:00.421Z,7.9
2023-04-19T19:30:00.430Z,7.9
2023-04-19T19:45:00.483Z,7.9
2023-04-19T20:00:16.046Z,7.8
2023-04-19T20:15:00.398Z,7.7
2023-04-19T20:30:00.415Z,7.6
2023-04-19T20:45:00.410Z,7.5
2023-04-19T21:00:00.481Z,7.4
2023-04-19T21:15:00.424Z,7.2
2023-04-19T21:30:00.417Z,7.1
2023-04-19T21:45:00.509Z,7.1
2023-04-19T22:00:00.399Z,7.0
2023-04-19T22:15:00.501Z,6.9
2023-04-19T22:30:00.415Z,6.9
2023-04-19T22:45:00.384Z,6.8
2023-04-19T23:00:00.410Z,6.8
2023-04-19T23:15:00.412Z,6.7
2023-04-19T23:30:00.447Z,6.7
2023-04-19T23:45:00.395Z,6.6
